Cheyenne, WY (82001)

2:16 AM MDT on July 31, 2016 (GMT -0600)
South High School | | Change Station

Elev 6155 ft 41.11 °N, 104.83 °W | Updated 5 minutes ago

Scattered Clouds
Scattered Clouds
62.2 °F
Feels Like 62.2 °F
N
2.7
Wind Variable Wind from SW

Today
High -- | Low -- °F
--% Chance of Precip.
Yesterday
High -- | Low -- °F
Precip. -- in
Pressure 29.81 in
Visibility 10.0 miles
Clouds Scattered Clouds 13000 ft
Dew Point 57 °F
Humidity 82%
Rainfall 0.00 in
Snow Depth Not available.
5:54 AM 8:16 PM
Waning Crescent, 8% visible
METAR KFEW 310758Z AUTO 26004KT 10SM SCT130 15/14 A3006 RMK AO2 SLP094 T01510139 $
Pressure 29.81 in
Visibility 10.0 miles
Clouds Scattered Clouds 13000 ft
Dew Point 57 °F
Humidity 82%
Rainfall 0.00 in
Snow Depth Not available.
5:54 AM 8:16 PM
Waning Crescent, 8% visible
METAR KFEW 310758Z AUTO 26004KT 10SM SCT130 15/14 A3006 RMK AO2 SLP094 T01510139 $

10-Day Weather Forecast

Almanac

Astronomy

Jul. 31, 2016 Rise Set
Actual Time
Civil Twilight
Nautical Twilight
Astronomical Twilight
Moon
Length of Visible Light
Length of Day
Tomorrow will be .
, % of the Moon is Illuminated

Today's Extremes

State Highs State Lows

Community

WunderPhotos

Upload Photos

1,928,768 photos uploaded!

WunderBlog® & News

Nearby

Air Quality

  Air Quality AQ Index Pollutant
Not available.

Snow Depth

Station Depth Elevation

Earthquake Activity

City Distance Mag. Time & Date
Minimum magnitude displayed is 2.5.

Coastal Water Temperatures

Place Temperature

Stations

Nearby Weather Stations

Station Location Temp. Windchill Dew Point Humidity Wind Precip. Elev Updated Type
                   

Watches & Warnings

There are currently no watches in effect.